Terminal Aerodrome Forecast
Issued by NWS Cleveland, OH

Home | Current Version | Previous Version | Graphics & Text | Print | Product List | Glossary On
Versions: 1 2 3 4 5 6 7 8 9 10 11 12 13 14 15
000
FTUS41 KCLE 181741
TAFCAK
TAF
KCAK 181741Z 1818/1918 21006KT P6SM SCT025 BKN250
     FM182000 17008KT P6SM BKN250
     FM190800 16008KT P6SM SCT250 WS020/19045KT
     FM191300 18011KT P6SM -RA OVC025 WS020/20045KT
     FM191500 18012KT 2SM -RA BR OVC007 WS020/21040KT=

USA.gov is the U.S. government's official web portal to all federal, state and local government web resources and services.